sensor_id;sensor_type;location;lat;lon;timestamp;P1;durP1;ratioP1;P2;durP2;ratioP2
25667;SDS011;18003;-33.830;151.202;2024-03-22T00:01:49;8.98;;;3.12;;
25667;SDS011;18003;-33.830;151.202;2024-03-22T00:04:19;6.78;;;2.35;;
25667;SDS011;18003;-33.830;151.202;2024-03-22T00:06:50;6.83;;;2.45;;
25667;SDS011;18003;-33.830;151.202;2024-03-22T00:09:20;8.93;;;2.80;;
25667;SDS011;18003;-33.830;151.202;2024-03-22T00:11:50;5.23;;;2.70;;
25667;SDS011;18003;-33.830;151.202;2024-03-22T00:14:20;4.87;;;2.60;;
25667;SDS011;18003;-33.830;151.202;2024-03-22T00:16:50;6.15;;;2.45;;
25667;SDS011;18003;-33.830;151.202;2024-03-22T00:19:20;9.40;;;2.62;;
25667;SDS011;18003;-33.830;151.202;2024-03-22T00:21:50;5.47;;;2.45;;
25667;SDS011;18003;-33.830;151.202;2024-03-22T00:24:20;6.87;;;2.33;;
25667;SDS011;18003;-33.830;151.202;2024-03-22T00:26:50;7.12;;;2.60;;
25667;SDS011;18003;-33.830;151.202;2024-03-22T00:29:20;5.97;;;2.45;;
25667;SDS011;18003;-33.830;151.202;2024-03-22T00:31:50;10.25;;;2.50;;
25667;SDS011;18003;-33.830;151.202;2024-03-22T00:34:20;5.25;;;2.40;;
25667;SDS011;18003;-33.830;151.202;2024-03-22T00:36:51;4.62;;;2.12;;
25667;SDS011;18003;-33.830;151.202;2024-03-22T00:39:21;8.85;;;2.10;;
25667;SDS011;18003;-33.830;151.202;2024-03-22T00:41:52;7.78;;;2.50;;
25667;SDS011;18003;-33.830;151.202;2024-03-22T00:44:22;9.93;;;2.72;;
25667;SDS011;18003;-33.830;151.202;2024-03-22T00:46:52;8.35;;;2.58;;
25667;SDS011;18003;-33.830;151.202;2024-03-22T00:49:22;6.50;;;2.10;;
25667;SDS011;18003;-33.830;151.202;2024-03-22T00:51:52;7.45;;;2.92;;
25667;SDS011;18003;-33.830;151.202;2024-03-22T00:54:22;8.78;;;2.42;;
25667;SDS011;18003;-33.830;151.202;2024-03-22T00:56:52;7.42;;;2.52;;
25667;SDS011;18003;-33.830;151.202;2024-03-22T00:59:22;5.15;;;2.10;;
25667;SDS011;18003;-33.830;151.202;2024-03-22T01:01:52;5.80;;;2.40;;
25667;SDS011;18003;-33.830;151.202;2024-03-22T01:04:22;5.87;;;2.52;;
25667;SDS011;18003;-33.830;151.202;2024-03-22T01:06:52;7.17;;;2.60;;
25667;SDS011;18003;-33.830;151.202;2024-03-22T01:09:22;9.38;;;2.60;;
25667;SDS011;18003;-33.830;151.202;2024-03-22T01:11:52;6.90;;;2.72;;
25667;SDS011;18003;-33.830;151.202;2024-03-22T01:14:22;6.95;;;2.70;;
25667;SDS011;18003;-33.830;151.202;2024-03-22T01:16:51;6.75;;;2.58;;
25667;SDS011;18003;-33.830;151.202;2024-03-22T01:19:21;4.55;;;2.40;;
25667;SDS011;18003;-33.830;151.202;2024-03-22T01:21:52;7.25;;;2.50;;
25667;SDS011;18003;-33.830;151.202;2024-03-22T01:24:20;7.08;;;2.70;;
25667;SDS011;18003;-33.830;151.202;2024-03-22T01:26:50;5.25;;;2.52;;
25667;SDS011;18003;-33.830;151.202;2024-03-22T01:29:20;9.85;;;3.00;;
25667;SDS011;18003;-33.830;151.202;2024-03-22T01:31:50;6.20;;;2.70;;
25667;SDS011;18003;-33.830;151.202;2024-03-22T01:34:20;5.53;;;2.83;;
25667;SDS011;18003;-33.830;151.202;2024-03-22T01:36:56;6.83;;;2.50;;
25667;SDS011;18003;-33.830;151.202;2024-03-22T01:39:21;5.60;;;2.40;;
25667;SDS011;18003;-33.830;151.202;2024-03-22T01:41:52;6.30;;;2.70;;
25667;SDS011;18003;-33.830;151.202;2024-03-22T01:44:29;5.75;;;2.70;;
25667;SDS011;18003;-33.830;151.202;2024-03-22T01:47:01;8.40;;;2.70;;
25667;SDS011;18003;-33.830;151.202;2024-03-22T01:49:31;7.55;;;3.27;;
25667;SDS011;18003;-33.830;151.202;2024-03-22T01:52:02;9.13;;;3.05;;
25667;SDS011;18003;-33.830;151.202;2024-03-22T01:54:32;8.05;;;2.98;;
25667;SDS011;18003;-33.830;151.202;2024-03-22T01:57:03;8.00;;;3.00;;
25667;SDS011;18003;-33.830;151.202;2024-03-22T01:59:34;7.35;;;2.62;;
25667;SDS011;18003;-33.830;151.202;2024-03-22T02:02:04;8.48;;;3.00;;
25667;SDS011;18003;-33.830;151.202;2024-03-22T02:04:35;7.53;;;2.33;;
25667;SDS011;18003;-33.830;151.202;2024-03-22T02:07:05;10.88;;;2.70;;
25667;SDS011;18003;-33.830;151.202;2024-03-22T02:09:35;7.80;;;2.42;;
25667;SDS011;18003;-33.830;151.202;2024-03-22T02:12:05;6.62;;;2.60;;
25667;SDS011;18003;-33.830;151.202;2024-03-22T02:14:36;5.55;;;2.70;;
25667;SDS011;18003;-33.830;151.202;2024-03-22T02:17:06;8.03;;;2.72;;
25667;SDS011;18003;-33.830;151.202;2024-03-22T02:19:36;8.38;;;3.08;;
25667;SDS011;18003;-33.830;151.202;2024-03-22T02:22:06;9.78;;;2.80;;
25667;SDS011;18003;-33.830;151.202;2024-03-22T02:24:37;8.03;;;2.90;;
25667;SDS011;18003;-33.830;151.202;2024-03-22T02:27:06;8.38;;;2.72;;
25667;SDS011;18003;-33.830;151.202;2024-03-22T02:29:36;6.95;;;2.42;;
25667;SDS011;18003;-33.830;151.202;2024-03-22T02:32:06;4.62;;;2.30;;
25667;SDS011;18003;-33.830;151.202;2024-03-22T02:34:37;7.20;;;2.42;;
25667;SDS011;18003;-33.830;151.202;2024-03-22T02:37:08;6.10;;;2.27;;
25667;SDS011;18003;-33.830;151.202;2024-03-22T02:39:38;5.87;;;2.25;;
25667;SDS011;18003;-33.830;151.202;2024-03-22T02:42:08;4.75;;;2.20;;
25667;SDS011;18003;-33.830;151.202;2024-03-22T02:44:38;4.08;;;2.30;;
25667;SDS011;18003;-33.830;151.202;2024-03-22T02:47:08;6.50;;;2.40;;
25667;SDS011;18003;-33.830;151.202;2024-03-22T02:49:42;4.97;;;2.58;;
25667;SDS011;18003;-33.830;151.202;2024-03-22T02:52:13;5.58;;;2.20;;
25667;SDS011;18003;-33.830;151.202;2024-03-22T02:54:42;4.78;;;2.10;;
25667;SDS011;18003;-33.830;151.202;2024-03-22T02:57:12;5.53;;;2.20;;
25667;SDS011;18003;-33.830;151.202;2024-03-22T02:59:42;5.53;;;2.30;;
25667;SDS011;18003;-33.830;151.202;2024-03-22T03:02:11;5.80;;;2.40;;
25667;SDS011;18003;-33.830;151.202;2024-03-22T03:04:40;7.17;;;2.30;;
25667;SDS011;18003;-33.830;151.202;2024-03-22T03:07:09;3.98;;;2.33;;
25667;SDS011;18003;-33.830;151.202;2024-03-22T03:09:38;6.65;;;2.20;;
25667;SDS011;18003;-33.830;151.202;2024-03-22T03:12:07;5.35;;;2.30;;
25667;SDS011;18003;-33.830;151.202;2024-03-22T03:14:37;6.33;;;2.50;;
25667;SDS011;18003;-33.830;151.202;2024-03-22T03:17:08;6.30;;;2.27;;
25667;SDS011;18003;-33.830;151.202;2024-03-22T03:19:38;6.75;;;1.95;;
25667;SDS011;18003;-33.830;151.202;2024-03-22T03:22:08;20.27;;;2.72;;
25667;SDS011;18003;-33.830;151.202;2024-03-22T03:24:39;7.30;;;2.00;;
25667;SDS011;18003;-33.830;151.202;2024-03-22T03:27:09;5.95;;;2.17;;
25667;SDS011;18003;-33.830;151.202;2024-03-22T03:29:39;5.35;;;1.85;;
25667;SDS011;18003;-33.830;151.202;2024-03-22T03:32:09;5.92;;;1.90;;
25667;SDS011;18003;-33.830;151.202;2024-03-22T03:34:39;3.90;;;1.72;;
25667;SDS011;18003;-33.830;151.202;2024-03-22T03:37:14;4.47;;;1.80;;
25667;SDS011;18003;-33.830;151.202;2024-03-22T03:39:40;7.22;;;1.95;;
25667;SDS011;18003;-33.830;151.202;2024-03-22T03:42:11;4.15;;;1.52;;
25667;SDS011;18003;-33.830;151.202;2024-03-22T03:44:41;6.80;;;1.80;;
25667;SDS011;18003;-33.830;151.202;2024-03-22T03:47:11;4.47;;;1.50;;
25667;SDS011;18003;-33.830;151.202;2024-03-22T03:49:42;4.78;;;1.75;;
25667;SDS011;18003;-33.830;151.202;2024-03-22T03:52:13;6.28;;;1.90;;
25667;SDS011;18003;-33.830;151.202;2024-03-22T03:54:43;4.75;;;1.82;;
25667;SDS011;18003;-33.830;151.202;2024-03-22T03:57:14;4.05;;;1.67;;
25667;SDS011;18003;-33.830;151.202;2024-03-22T03:59:43;8.68;;;2.25;;
25667;SDS011;18003;-33.830;151.202;2024-03-22T04:02:13;4.95;;;1.80;;
25667;SDS011;18003;-33.830;151.202;2024-03-22T04:04:43;5.30;;;1.90;;
25667;SDS011;18003;-33.830;151.202;2024-03-22T04:07:14;6.85;;;1.90;;
25667;SDS011;18003;-33.830;151.202;2024-03-22T04:09:44;7.97;;;2.15;;
25667;SDS011;18003;-33.830;151.202;2024-03-22T04:12:14;8.78;;;2.05;;
25667;SDS011;18003;-33.830;151.202;2024-03-22T04:14:43;4.83;;;1.85;;
25667;SDS011;18003;-33.830;151.202;2024-03-22T04:17:13;5.60;;;1.92;;
25667;SDS011;18003;-33.830;151.202;2024-03-22T04:19:44;6.75;;;1.90;;
25667;SDS011;18003;-33.830;151.202;2024-03-22T04:22:14;6.67;;;2.20;;
25667;SDS011;18003;-33.830;151.202;2024-03-22T04:24:44;7.15;;;2.17;;
25667;SDS011;18003;-33.830;151.202;2024-03-22T04:27:15;6.50;;;2.20;;
25667;SDS011;18003;-33.830;151.202;2024-03-22T04:29:46;4.50;;;1.92;;
25667;SDS011;18003;-33.830;151.202;2024-03-22T04:32:16;2.72;;;1.52;;
25667;SDS011;18003;-33.830;151.202;2024-03-22T04:34:48;4.58;;;1.80;;
25667;SDS011;18003;-33.830;151.202;2024-03-22T04:37:18;5.50;;;1.80;;
25667;SDS011;18003;-33.830;151.202;2024-03-22T04:39:46;5.92;;;1.80;;
25667;SDS011;18003;-33.830;151.202;2024-03-22T04:42:21;4.72;;;1.70;;
25667;SDS011;18003;-33.830;151.202;2024-03-22T04:44:48;5.83;;;1.70;;
25667;SDS011;18003;-33.830;151.202;2024-03-22T04:47:19;6.37;;;2.00;;
25667;SDS011;18003;-33.830;151.202;2024-03-22T04:49:53;5.70;;;2.10;;
25667;SDS011;18003;-33.830;151.202;2024-03-22T04:52:23;3.98;;;1.70;;
25667;SDS011;18003;-33.830;151.202;2024-03-22T04:54:52;5.10;;;2.00;;
25667;SDS011;18003;-33.830;151.202;2024-03-22T04:57:23;7.37;;;1.90;;
25667;SDS011;18003;-33.830;151.202;2024-03-22T04:59:52;4.85;;;1.75;;
25667;SDS011;18003;-33.830;151.202;2024-03-22T05:02:21;4.92;;;1.75;;
25667;SDS011;18003;-33.830;151.202;2024-03-22T05:04:49;5.83;;;2.00;;
25667;SDS011;18003;-33.830;151.202;2024-03-22T05:07:18;4.70;;;1.80;;
25667;SDS011;18003;-33.830;151.202;2024-03-22T05:09:50;7.72;;;1.85;;
25667;SDS011;18003;-33.830;151.202;2024-03-22T05:12:19;3.95;;;1.70;;
25667;SDS011;18003;-33.830;151.202;2024-03-22T05:14:48;5.35;;;2.08;;
25667;SDS011;18003;-33.830;151.202;2024-03-22T05:17:17;8.78;;;1.95;;
25667;SDS011;18003;-33.830;151.202;2024-03-22T05:19:46;12.82;;;2.42;;
25667;SDS011;18003;-33.830;151.202;2024-03-22T05:22:15;5.15;;;1.85;;
25667;SDS011;18003;-33.830;151.202;2024-03-22T05:24:44;6.30;;;2.12;;
25667;SDS011;18003;-33.830;151.202;2024-03-22T05:27:13;5.08;;;1.70;;
25667;SDS011;18003;-33.830;151.202;2024-03-22T05:29:42;5.90;;;1.90;;
25667;SDS011;18003;-33.830;151.202;2024-03-22T05:32:11;7.25;;;2.00;;
25667;SDS011;18003;-33.830;151.202;2024-03-22T05:34:41;6.35;;;1.62;;
25667;SDS011;18003;-33.830;151.202;2024-03-22T05:37:09;8.50;;;2.05;;
25667;SDS011;18003;-33.830;151.202;2024-03-22T05:39:39;7.58;;;1.90;;
25667;SDS011;18003;-33.830;151.202;2024-03-22T05:42:08;4.10;;;1.70;;
25667;SDS011;18003;-33.830;151.202;2024-03-22T05:44:37;7.08;;;1.98;;
25667;SDS011;18003;-33.830;151.202;2024-03-22T05:47:12;6.78;;;2.33;;
25667;SDS011;18003;-33.830;151.202;2024-03-22T05:49:37;4.75;;;1.70;;
25667;SDS011;18003;-33.830;151.202;2024-03-22T05:52:07;7.30;;;2.05;;
25667;SDS011;18003;-33.830;151.202;2024-03-22T05:54:36;8.70;;;2.30;;
25667;SDS011;18003;-33.830;151.202;2024-03-22T05:57:05;7.83;;;2.22;;
25667;SDS011;18003;-33.830;151.202;2024-03-22T05:59:37;44.67;;;4.22;;
25667;SDS011;18003;-33.830;151.202;2024-03-22T06:02:06;37.78;;;3.67;;
25667;SDS011;18003;-33.830;151.202;2024-03-22T06:04:39;11.38;;;2.58;;
25667;SDS011;18003;-33.830;151.202;2024-03-22T06:07:08;12.03;;;2.50;;
25667;SDS011;18003;-33.830;151.202;2024-03-22T06:09:37;10.25;;;2.37;;
25667;SDS011;18003;-33.830;151.202;2024-03-22T06:12:07;12.05;;;2.80;;
25667;SDS011;18003;-33.830;151.202;2024-03-22T06:14:36;16.97;;;2.70;;
25667;SDS011;18003;-33.830;151.202;2024-03-22T06:17:05;21.82;;;2.92;;
25667;SDS011;18003;-33.830;151.202;2024-03-22T06:19:37;6.92;;;2.08;;
25667;SDS011;18003;-33.830;151.202;2024-03-22T06:22:06;6.92;;;1.90;;
25667;SDS011;18003;-33.830;151.202;2024-03-22T06:24:40;5.85;;;2.05;;
25667;SDS011;18003;-33.830;151.202;2024-03-22T06:27:14;5.10;;;1.87;;
25667;SDS011;18003;-33.830;151.202;2024-03-22T06:29:47;7.37;;;2.20;;
25667;SDS011;18003;-33.830;151.202;2024-03-22T06:32:26;6.60;;;2.15;;
25667;SDS011;18003;-33.830;151.202;2024-03-22T06:34:57;5.30;;;1.92;;
25667;SDS011;18003;-33.830;151.202;2024-03-22T06:37:26;4.22;;;1.98;;
25667;SDS011;18003;-33.830;151.202;2024-03-22T06:39:55;4.87;;;2.00;;
25667;SDS011;18003;-33.830;151.202;2024-03-22T06:42:25;6.00;;;1.90;;
25667;SDS011;18003;-33.830;151.202;2024-03-22T06:44:54;4.83;;;2.33;;
25667;SDS011;18003;-33.830;151.202;2024-03-22T06:47:27;4.78;;;1.60;;
25667;SDS011;18003;-33.830;151.202;2024-03-22T06:49:57;9.38;;;2.15;;
25667;SDS011;18003;-33.830;151.202;2024-03-22T06:52:26;6.78;;;2.12;;
25667;SDS011;18003;-33.830;151.202;2024-03-22T06:54:56;5.47;;;2.10;;
25667;SDS011;18003;-33.830;151.202;2024-03-22T06:57:25;5.75;;;2.00;;
25667;SDS011;18003;-33.830;151.202;2024-03-22T06:59:54;5.45;;;2.15;;
25667;SDS011;18003;-33.830;151.202;2024-03-22T07:02:27;7.47;;;1.90;;
25667;SDS011;18003;-33.830;151.202;2024-03-22T07:04:56;5.45;;;2.00;;
25667;SDS011;18003;-33.830;151.202;2024-03-22T07:07:29;6.33;;;2.30;;
25667;SDS011;18003;-33.830;151.202;2024-03-22T07:09:57;5.65;;;1.87;;
25667;SDS011;18003;-33.830;151.202;2024-03-22T07:12:29;4.95;;;2.50;;
25667;SDS011;18003;-33.830;151.202;2024-03-22T07:15:04;6.28;;;1.95;;
25667;SDS011;18003;-33.830;151.202;2024-03-22T07:17:29;4.67;;;1.90;;
25667;SDS011;18003;-33.830;151.202;2024-03-22T07:19:58;6.58;;;1.72;;
25667;SDS011;18003;-33.830;151.202;2024-03-22T07:22:27;6.20;;;1.98;;
25667;SDS011;18003;-33.830;151.202;2024-03-22T07:24:56;4.47;;;1.82;;
25667;SDS011;18003;-33.830;151.202;2024-03-22T07:27:25;5.60;;;2.10;;
25667;SDS011;18003;-33.830;151.202;2024-03-22T07:29:55;18.10;;;3.00;;
25667;SDS011;18003;-33.830;151.202;2024-03-22T07:32:24;20.92;;;2.80;;
25667;SDS011;18003;-33.830;151.202;2024-03-22T07:34:53;8.75;;;2.12;;
25667;SDS011;18003;-33.830;151.202;2024-03-22T07:37:22;5.75;;;1.70;;
25667;SDS011;18003;-33.830;151.202;2024-03-22T07:39:51;11.70;;;1.90;;
25667;SDS011;18003;-33.830;151.202;2024-03-22T07:42:20;7.45;;;2.00;;
25667;SDS011;18003;-33.830;151.202;2024-03-22T07:44:49;4.70;;;1.75;;
25667;SDS011;18003;-33.830;151.202;2024-03-22T07:47:18;8.20;;;2.00;;
25667;SDS011;18003;-33.830;151.202;2024-03-22T07:49:47;8.95;;;2.10;;
25667;SDS011;18003;-33.830;151.202;2024-03-22T07:52:16;5.58;;;1.92;;
25667;SDS011;18003;-33.830;151.202;2024-03-22T07:54:45;4.58;;;1.62;;
25667;SDS011;18003;-33.830;151.202;2024-03-22T07:57:14;5.87;;;1.90;;
25667;SDS011;18003;-33.830;151.202;2024-03-22T07:59:43;9.83;;;2.17;;
25667;SDS011;18003;-33.830;151.202;2024-03-22T08:02:12;4.15;;;2.00;;
25667;SDS011;18003;-33.830;151.202;2024-03-22T08:04:41;4.45;;;2.00;;
25667;SDS011;18003;-33.830;151.202;2024-03-22T08:07:10;5.50;;;1.80;;
25667;SDS011;18003;-33.830;151.202;2024-03-22T08:09:39;6.33;;;2.00;;
25667;SDS011;18003;-33.830;151.202;2024-03-22T08:12:08;6.87;;;2.37;;
25667;SDS011;18003;-33.830;151.202;2024-03-22T08:14:37;7.78;;;1.72;;
25667;SDS011;18003;-33.830;151.202;2024-03-22T08:17:07;7.92;;;2.17;;
25667;SDS011;18003;-33.830;151.202;2024-03-22T08:19:37;4.65;;;1.85;;
25667;SDS011;18003;-33.830;151.202;2024-03-22T08:22:06;5.90;;;2.37;;
25667;SDS011;18003;-33.830;151.202;2024-03-22T08:24:35;3.72;;;1.77;;
25667;SDS011;18003;-33.830;151.202;2024-03-22T08:27:05;7.72;;;2.08;;
25667;SDS011;18003;-33.830;151.202;2024-03-22T08:29:43;4.20;;;1.90;;
25667;SDS011;18003;-33.830;151.202;2024-03-22T08:32:05;7.20;;;2.57;;
25667;SDS011;18003;-33.830;151.202;2024-03-22T08:34:34;5.45;;;1.95;;
25667;SDS011;18003;-33.830;151.202;2024-03-22T08:37:03;8.00;;;1.90;;
25667;SDS011;18003;-33.830;151.202;2024-03-22T08:39:31;4.80;;;2.10;;
25667;SDS011;18003;-33.830;151.202;2024-03-22T08:42:01;5.55;;;1.75;;
25667;SDS011;18003;-33.830;151.202;2024-03-22T08:44:31;5.35;;;1.60;;
25667;SDS011;18003;-33.830;151.202;2024-03-22T08:47:00;5.05;;;1.95;;
25667;SDS011;18003;-33.830;151.202;2024-03-22T08:49:29;6.30;;;2.00;;
25667;SDS011;18003;-33.830;151.202;2024-03-22T08:51:57;5.28;;;2.05;;
25667;SDS011;18003;-33.830;151.202;2024-03-22T08:54:26;5.85;;;1.90;;
25667;SDS011;18003;-33.830;151.202;2024-03-22T08:56:55;5.70;;;2.15;;
25667;SDS011;18003;-33.830;151.202;2024-03-22T08:59:24;3.47;;;1.50;;
25667;SDS011;18003;-33.830;151.202;2024-03-22T09:01:53;5.05;;;1.62;;
25667;SDS011;18003;-33.830;151.202;2024-03-22T09:04:22;6.53;;;1.80;;
25667;SDS011;18003;-33.830;151.202;2024-03-22T09:06:51;5.17;;;1.77;;
25667;SDS011;18003;-33.830;151.202;2024-03-22T09:09:19;5.58;;;2.02;;
25667;SDS011;18003;-33.830;151.202;2024-03-22T09:11:48;3.52;;;1.50;;
25667;SDS011;18003;-33.830;151.202;2024-03-22T09:14:17;7.87;;;1.77;;
25667;SDS011;18003;-33.830;151.202;2024-03-22T09:16:46;5.97;;;1.70;;
25667;SDS011;18003;-33.830;151.202;2024-03-22T09:19:15;4.40;;;1.67;;
25667;SDS011;18003;-33.830;151.202;2024-03-22T09:21:44;4.50;;;1.70;;
25667;SDS011;18003;-33.830;151.202;2024-03-22T09:24:13;4.95;;;1.80;;
25667;SDS011;18003;-33.830;151.202;2024-03-22T09:26:41;6.08;;;1.85;;
25667;SDS011;18003;-33.830;151.202;2024-03-22T09:29:10;7.45;;;1.90;;
25667;SDS011;18003;-33.830;151.202;2024-03-22T09:31:39;7.00;;;1.90;;
25667;SDS011;18003;-33.830;151.202;2024-03-22T09:34:08;6.08;;;1.80;;
25667;SDS011;18003;-33.830;151.202;2024-03-22T09:36:37;6.60;;;2.40;;
25667;SDS011;18003;-33.830;151.202;2024-03-22T09:39:06;7.17;;;1.80;;
25667;SDS011;18003;-33.830;151.202;2024-03-22T09:41:36;6.42;;;1.90;;
25667;SDS011;18003;-33.830;151.202;2024-03-22T09:44:05;8.58;;;1.80;;
25667;SDS011;18003;-33.830;151.202;2024-03-22T09:46:34;5.40;;;1.52;;
25667;SDS011;18003;-33.830;151.202;2024-03-22T09:49:03;4.35;;;1.70;;
25667;SDS011;18003;-33.830;151.202;2024-03-22T09:51:32;4.05;;;1.70;;
25667;SDS011;18003;-33.830;151.202;2024-03-22T09:54:02;2.87;;;1.50;;
25667;SDS011;18003;-33.830;151.202;2024-03-22T09:56:31;7.72;;;1.80;;
25667;SDS011;18003;-33.830;151.202;2024-03-22T09:59:00;4.70;;;1.80;;
25667;SDS011;18003;-33.830;151.202;2024-03-22T10:01:29;7.67;;;1.90;;
25667;SDS011;18003;-33.830;151.202;2024-03-22T10:03:59;4.25;;;1.65;;
25667;SDS011;18003;-33.830;151.202;2024-03-22T10:06:28;6.08;;;1.80;;
25667;SDS011;18003;-33.830;151.202;2024-03-22T10:08:58;5.25;;;1.75;;
25667;SDS011;18003;-33.830;151.202;2024-03-22T10:11:27;4.85;;;1.57;;
25667;SDS011;18003;-33.830;151.202;2024-03-22T10:13:56;6.05;;;1.87;;
25667;SDS011;18003;-33.830;151.202;2024-03-22T10:16:25;6.37;;;1.85;;
25667;SDS011;18003;-33.830;151.202;2024-03-22T10:18:54;6.05;;;2.15;;
25667;SDS011;18003;-33.830;151.202;2024-03-22T10:21:23;6.40;;;2.08;;
25667;SDS011;18003;-33.830;151.202;2024-03-22T10:23:53;3.98;;;1.60;;
25667;SDS011;18003;-33.830;151.202;2024-03-22T10:26:23;5.83;;;1.85;;
25667;SDS011;18003;-33.830;151.202;2024-03-22T10:28:52;6.22;;;2.02;;
25667;SDS011;18003;-33.830;151.202;2024-03-22T10:31:21;5.67;;;1.85;;
25667;SDS011;18003;-33.830;151.202;2024-03-22T10:33:51;3.72;;;1.90;;
25667;SDS011;18003;-33.830;151.202;2024-03-22T10:36:21;5.78;;;1.98;;
25667;SDS011;18003;-33.830;151.202;2024-03-22T10:38:50;6.67;;;1.60;;
25667;SDS011;18003;-33.830;151.202;2024-03-22T10:41:19;4.53;;;1.75;;
25667;SDS011;18003;-33.830;151.202;2024-03-22T10:43:48;5.87;;;1.70;;
25667;SDS011;18003;-33.830;151.202;2024-03-22T10:46:17;5.53;;;1.47;;
25667;SDS011;18003;-33.830;151.202;2024-03-22T10:48:47;4.62;;;1.60;;
25667;SDS011;18003;-33.830;151.202;2024-03-22T10:54:25;2.95;;;1.70;;
25667;SDS011;18003;-33.830;151.202;2024-03-22T10:56:56;4.00;;;1.72;;
25667;SDS011;18003;-33.830;151.202;2024-03-22T10:59:25;3.30;;;1.60;;
25667;SDS011;18003;-33.830;151.202;2024-03-22T11:02:02;3.62;;;1.70;;
25667;SDS011;18003;-33.830;151.202;2024-03-22T11:04:29;5.70;;;2.17;;
25667;SDS011;18003;-33.830;151.202;2024-03-22T11:06:56;7.30;;;1.70;;
25667;SDS011;18003;-33.830;151.202;2024-03-22T11:09:37;6.50;;;1.80;;
25667;SDS011;18003;-33.830;151.202;2024-03-22T11:12:06;6.97;;;1.65;;
25667;SDS011;18003;-33.830;151.202;2024-03-22T11:17:17;4.15;;;1.80;;
25667;SDS011;18003;-33.830;151.202;2024-03-22T11:19:46;6.37;;;1.92;;
25667;SDS011;18003;-33.830;151.202;2024-03-22T11:22:15;5.28;;;1.82;;
25667;SDS011;18003;-33.830;151.202;2024-03-22T11:27:15;6.85;;;2.15;;
25667;SDS011;18003;-33.830;151.202;2024-03-22T11:29:54;4.08;;;1.90;;
25667;SDS011;18003;-33.830;151.202;2024-03-22T11:32:26;6.83;;;2.02;;
25667;SDS011;18003;-33.830;151.202;2024-03-22T11:37:30;6.10;;;1.95;;
25667;SDS011;18003;-33.830;151.202;2024-03-22T11:39:59;5.83;;;2.10;;
25667;SDS011;18003;-33.830;151.202;2024-03-22T11:42:29;4.92;;;2.15;;
25667;SDS011;18003;-33.830;151.202;2024-03-22T11:44:59;6.83;;;2.27;;
25667;SDS011;18003;-33.830;151.202;2024-03-22T11:47:34;5.62;;;2.08;;
25667;SDS011;18003;-33.830;151.202;2024-03-22T11:50:01;5.87;;;2.30;;
25667;SDS011;18003;-33.830;151.202;2024-03-22T11:52:30;6.40;;;2.20;;
25667;SDS011;18003;-33.830;151.202;2024-03-22T11:54:59;4.65;;;2.22;;
25667;SDS011;18003;-33.830;151.202;2024-03-22T11:57:28;8.15;;;2.52;;
25667;SDS011;18003;-33.830;151.202;2024-03-22T12:00:02;5.25;;;1.98;;
25667;SDS011;18003;-33.830;151.202;2024-03-22T12:02:26;5.15;;;2.20;;
25667;SDS011;18003;-33.830;151.202;2024-03-22T12:04:55;5.05;;;2.10;;
25667;SDS011;18003;-33.830;151.202;2024-03-22T12:07:24;7.72;;;2.52;;
25667;SDS011;18003;-33.830;151.202;2024-03-22T12:09:53;4.67;;;2.00;;
25667;SDS011;18003;-33.830;151.202;2024-03-22T12:12:22;4.95;;;1.92;;
25667;SDS011;18003;-33.830;151.202;2024-03-22T12:14:51;7.72;;;2.47;;
25667;SDS011;18003;-33.830;151.202;2024-03-22T12:17:20;5.65;;;2.52;;
25667;SDS011;18003;-33.830;151.202;2024-03-22T12:19:49;4.65;;;2.33;;
25667;SDS011;18003;-33.830;151.202;2024-03-22T12:22:17;5.62;;;2.17;;
25667;SDS011;18003;-33.830;151.202;2024-03-22T12:24:46;4.22;;;2.52;;
25667;SDS011;18003;-33.830;151.202;2024-03-22T12:27:15;5.25;;;2.65;;
25667;SDS011;18003;-33.830;151.202;2024-03-22T12:29:44;6.80;;;2.58;;
25667;SDS011;18003;-33.830;151.202;2024-03-22T12:32:13;5.45;;;2.50;;
25667;SDS011;18003;-33.830;151.202;2024-03-22T12:34:42;4.47;;;2.42;;
25667;SDS011;18003;-33.830;151.202;2024-03-22T12:37:12;5.53;;;2.55;;
25667;SDS011;18003;-33.830;151.202;2024-03-22T12:39:41;6.10;;;2.72;;
25667;SDS011;18003;-33.830;151.202;2024-03-22T12:42:10;4.85;;;2.67;;
25667;SDS011;18003;-33.830;151.202;2024-03-22T12:44:39;7.42;;;3.98;;
25667;SDS011;18003;-33.830;151.202;2024-03-22T12:47:17;8.15;;;3.50;;
25667;SDS011;18003;-33.830;151.202;2024-03-22T12:49:47;7.40;;;3.75;;
25667;SDS011;18003;-33.830;151.202;2024-03-22T12:52:13;7.60;;;3.58;;
25667;SDS011;18003;-33.830;151.202;2024-03-22T12:54:42;6.15;;;3.25;;
25667;SDS011;18003;-33.830;151.202;2024-03-22T12:57:11;5.55;;;3.02;;
25667;SDS011;18003;-33.830;151.202;2024-03-22T12:59:40;7.10;;;3.42;;
25667;SDS011;18003;-33.830;151.202;2024-03-22T13:02:08;6.55;;;2.80;;
25667;SDS011;18003;-33.830;151.202;2024-03-22T13:04:37;5.75;;;2.83;;
25667;SDS011;18003;-33.830;151.202;2024-03-22T13:07:06;6.33;;;2.87;;
25667;SDS011;18003;-33.830;151.202;2024-03-22T13:09:35;6.90;;;3.10;;
25667;SDS011;18003;-33.830;151.202;2024-03-22T13:12:04;6.33;;;2.37;;
25667;SDS011;18003;-33.830;151.202;2024-03-22T13:14:34;5.62;;;2.80;;
25667;SDS011;18003;-33.830;151.202;2024-03-22T13:17:03;5.67;;;2.30;;
25667;SDS011;18003;-33.830;151.202;2024-03-22T13:19:32;6.97;;;2.17;;
25667;SDS011;18003;-33.830;151.202;2024-03-22T13:22:01;5.28;;;2.35;;
25667;SDS011;18003;-33.830;151.202;2024-03-22T13:24:30;4.65;;;2.10;;
25667;SDS011;18003;-33.830;151.202;2024-03-22T13:27:01;5.45;;;2.37;;
25667;SDS011;18003;-33.830;151.202;2024-03-22T13:29:30;4.05;;;1.98;;
25667;SDS011;18003;-33.830;151.202;2024-03-22T13:31:59;6.10;;;2.00;;
25667;SDS011;18003;-33.830;151.202;2024-03-22T13:34:28;4.30;;;2.10;;
25667;SDS011;18003;-33.830;151.202;2024-03-22T13:36:57;4.05;;;2.15;;
25667;SDS011;18003;-33.830;151.202;2024-03-22T13:39:26;4.40;;;2.30;;
25667;SDS011;18003;-33.830;151.202;2024-03-22T13:41:56;6.28;;;2.40;;
25667;SDS011;18003;-33.830;151.202;2024-03-22T13:44:25;5.10;;;2.08;;
25667;SDS011;18003;-33.830;151.202;2024-03-22T13:46:54;5.78;;;2.10;;
25667;SDS011;18003;-33.830;151.202;2024-03-22T13:49:23;5.78;;;2.00;;
25667;SDS011;18003;-33.830;151.202;2024-03-22T13:51:52;4.80;;;2.12;;
25667;SDS011;18003;-33.830;151.202;2024-03-22T13:54:22;4.90;;;1.90;;
25667;SDS011;18003;-33.830;151.202;2024-03-22T13:56:51;5.70;;;2.25;;
25667;SDS011;18003;-33.830;151.202;2024-03-22T13:59:20;3.85;;;1.90;;
25667;SDS011;18003;-33.830;151.202;2024-03-22T14:01:49;4.67;;;2.02;;
25667;SDS011;18003;-33.830;151.202;2024-03-22T14:04:18;6.45;;;2.17;;
25667;SDS011;18003;-33.830;151.202;2024-03-22T14:06:49;5.08;;;2.02;;
25667;SDS011;18003;-33.830;151.202;2024-03-22T14:09:18;5.00;;;1.80;;
25667;SDS011;18003;-33.830;151.202;2024-03-22T14:11:47;5.40;;;2.00;;
25667;SDS011;18003;-33.830;151.202;2024-03-22T14:14:17;5.17;;;2.00;;
25667;SDS011;18003;-33.830;151.202;2024-03-22T14:16:46;6.78;;;2.10;;
25667;SDS011;18003;-33.830;151.202;2024-03-22T14:19:14;3.70;;;1.90;;
25667;SDS011;18003;-33.830;151.202;2024-03-22T14:21:45;3.90;;;2.08;;
25667;SDS011;18003;-33.830;151.202;2024-03-22T14:24:16;4.65;;;1.85;;
25667;SDS011;18003;-33.830;151.202;2024-03-22T14:26:45;5.30;;;1.92;;
25667;SDS011;18003;-33.830;151.202;2024-03-22T14:29:14;4.90;;;1.60;;
25667;SDS011;18003;-33.830;151.202;2024-03-22T14:31:43;5.47;;;2.00;;
25667;SDS011;18003;-33.830;151.202;2024-03-22T14:34:13;3.72;;;1.80;;